sensor_id;sensor_type;location;lat;lon;timestamp;P1;durP1;ratioP1;P2;durP2;ratioP2
36291;SDS011;22327;51.208;6.418;2023-06-22T00:01:24;5.88;;;5.38;;
36291;SDS011;22327;51.208;6.418;2023-06-22T00:04:25;5.75;;;5.15;;
36291;SDS011;22327;51.208;6.418;2023-06-22T00:07:25;6.97;;;5.75;;
36291;SDS011;22327;51.208;6.418;2023-06-22T00:10:26;6.47;;;5.60;;
36291;SDS011;22327;51.208;6.418;2023-06-22T00:13:26;7.18;;;5.82;;
36291;SDS011;22327;51.208;6.418;2023-06-22T00:16:27;8.52;;;6.00;;
36291;SDS011;22327;51.208;6.418;2023-06-22T00:19:27;6.75;;;5.85;;
36291;SDS011;22327;51.208;6.418;2023-06-22T00:22:28;9.20;;;6.07;;
36291;SDS011;22327;51.208;6.418;2023-06-22T00:25:29;9.15;;;7.13;;
36291;SDS011;22327;51.208;6.418;2023-06-22T00:28:29;7.80;;;6.38;;
36291;SDS011;22327;51.208;6.418;2023-06-22T00:31:30;9.57;;;7.03;;
36291;SDS011;22327;51.208;6.418;2023-06-22T00:34:30;8.02;;;7.22;;
36291;SDS011;22327;51.208;6.418;2023-06-22T00:37:31;9.10;;;7.47;;
36291;SDS011;22327;51.208;6.418;2023-06-22T00:40:32;9.00;;;6.90;;
36291;SDS011;22327;51.208;6.418;2023-06-22T00:43:33;8.30;;;7.13;;
36291;SDS011;22327;51.208;6.418;2023-06-22T00:46:33;10.18;;;7.32;;
36291;SDS011;22327;51.208;6.418;2023-06-22T00:49:34;7.75;;;6.88;;
36291;SDS011;22327;51.208;6.418;2023-06-22T00:52:35;8.73;;;7.43;;
36291;SDS011;22327;51.208;6.418;2023-06-22T00:55:36;7.93;;;7.07;;
36291;SDS011;22327;51.208;6.418;2023-06-22T00:58:38;10.13;;;7.60;;
36291;SDS011;22327;51.208;6.418;2023-06-22T01:01:41;8.77;;;7.88;;
36291;SDS011;22327;51.208;6.418;2023-06-22T01:04:41;8.18;;;7.38;;
36291;SDS011;22327;51.208;6.418;2023-06-22T01:11:26;8.82;;;7.93;;
36291;SDS011;22327;51.208;6.418;2023-06-22T01:14:41;8.73;;;7.88;;
36291;SDS011;22327;51.208;6.418;2023-06-22T01:17:47;8.98;;;7.72;;
36291;SDS011;22327;51.208;6.418;2023-06-22T01:20:49;9.52;;;7.50;;
36291;SDS011;22327;51.208;6.418;2023-06-22T01:24:10;10.38;;;8.13;;
36291;SDS011;22327;51.208;6.418;2023-06-22T01:27:32;12.68;;;8.13;;
36291;SDS011;22327;51.208;6.418;2023-06-22T01:30:33;9.95;;;8.23;;
36291;SDS011;22327;51.208;6.418;2023-06-22T01:33:34;8.73;;;7.82;;
36291;SDS011;22327;51.208;6.418;2023-06-22T01:36:37;9.80;;;8.63;;
36291;SDS011;22327;51.208;6.418;2023-06-22T01:39:39;9.65;;;8.75;;
36291;SDS011;22327;51.208;6.418;2023-06-22T01:42:39;9.90;;;7.93;;
36291;SDS011;22327;51.208;6.418;2023-06-22T01:45:41;9.63;;;8.20;;
36291;SDS011;22327;51.208;6.418;2023-06-22T01:48:42;10.50;;;8.38;;
36291;SDS011;22327;51.208;6.418;2023-06-22T01:51:43;9.23;;;8.27;;
36291;SDS011;22327;51.208;6.418;2023-06-22T01:54:43;9.45;;;8.50;;
36291;SDS011;22327;51.208;6.418;2023-06-22T01:57:44;11.52;;;8.73;;
36291;SDS011;22327;51.208;6.418;2023-06-22T02:00:47;10.77;;;8.23;;
36291;SDS011;22327;51.208;6.418;2023-06-22T02:04:16;10.65;;;9.15;;
36291;SDS011;22327;51.208;6.418;2023-06-22T02:07:24;9.85;;;8.63;;
36291;SDS011;22327;51.208;6.418;2023-06-22T02:10:32;11.40;;;9.43;;
36291;SDS011;22327;51.208;6.418;2023-06-22T02:13:34;10.40;;;9.05;;
36291;SDS011;22327;51.208;6.418;2023-06-22T02:16:36;12.70;;;9.50;;
36291;SDS011;22327;51.208;6.418;2023-06-22T02:19:38;12.13;;;10.48;;
36291;SDS011;22327;51.208;6.418;2023-06-22T02:22:41;11.05;;;9.95;;
36291;SDS011;22327;51.208;6.418;2023-06-22T02:25:41;11.93;;;9.60;;
36291;SDS011;22327;51.208;6.418;2023-06-22T02:28:44;12.52;;;10.40;;
36291;SDS011;22327;51.208;6.418;2023-06-22T02:31:45;11.38;;;10.18;;
36291;SDS011;22327;51.208;6.418;2023-06-22T02:34:46;11.63;;;10.20;;
36291;SDS011;22327;51.208;6.418;2023-06-22T02:37:47;11.52;;;10.32;;
36291;SDS011;22327;51.208;6.418;2023-06-22T02:40:51;11.73;;;9.82;;
36291;SDS011;22327;51.208;6.418;2023-06-22T02:43:52;16.65;;;10.77;;
36291;SDS011;22327;51.208;6.418;2023-06-22T02:46:52;13.23;;;10.88;;
36291;SDS011;22327;51.208;6.418;2023-06-22T02:49:54;12.13;;;10.27;;
36291;SDS011;22327;51.208;6.418;2023-06-22T02:52:55;14.35;;;10.93;;
36291;SDS011;22327;51.208;6.418;2023-06-22T02:55:55;11.93;;;10.10;;
36291;SDS011;22327;51.208;6.418;2023-06-22T02:58:56;12.73;;;10.13;;
36291;SDS011;22327;51.208;6.418;2023-06-22T03:02:00;11.73;;;9.68;;
36291;SDS011;22327;51.208;6.418;2023-06-22T03:05:02;11.65;;;9.73;;
36291;SDS011;22327;51.208;6.418;2023-06-22T03:08:04;13.25;;;11.40;;
36291;SDS011;22327;51.208;6.418;2023-06-22T03:11:04;13.13;;;10.40;;
36291;SDS011;22327;51.208;6.418;2023-06-22T03:14:04;12.10;;;10.77;;
36291;SDS011;22327;51.208;6.418;2023-06-22T03:17:05;12.77;;;10.73;;
36291;SDS011;22327;51.208;6.418;2023-06-22T03:20:06;13.73;;;10.77;;
36291;SDS011;22327;51.208;6.418;2023-06-22T03:23:14;14.30;;;10.50;;
36291;SDS011;22327;51.208;6.418;2023-06-22T03:26:18;15.10;;;10.75;;
36291;SDS011;22327;51.208;6.418;2023-06-22T03:29:18;14.88;;;11.38;;
36291;SDS011;22327;51.208;6.418;2023-06-22T03:32:19;14.45;;;11.68;;
36291;SDS011;22327;51.208;6.418;2023-06-22T03:35:19;13.27;;;10.80;;
36291;SDS011;22327;51.208;6.418;2023-06-22T03:38:20;14.88;;;11.20;;
36291;SDS011;22327;51.208;6.418;2023-06-22T03:41:20;14.02;;;11.38;;
36291;SDS011;22327;51.208;6.418;2023-06-22T03:44:21;13.73;;;12.32;;
36291;SDS011;22327;51.208;6.418;2023-06-22T03:47:22;13.52;;;11.38;;
36291;SDS011;22327;51.208;6.418;2023-06-22T03:50:23;16.83;;;11.02;;
36291;SDS011;22327;51.208;6.418;2023-06-22T03:53:23;12.82;;;11.40;;
36291;SDS011;22327;51.208;6.418;2023-06-22T03:56:24;13.20;;;11.35;;
36291;SDS011;22327;51.208;6.418;2023-06-22T03:59:24;13.65;;;10.52;;
36291;SDS011;22327;51.208;6.418;2023-06-22T04:02:25;15.38;;;11.82;;
36291;SDS011;22327;51.208;6.418;2023-06-22T04:05:26;14.15;;;12.10;;
36291;SDS011;22327;51.208;6.418;2023-06-22T04:08:26;14.65;;;11.23;;
36291;SDS011;22327;51.208;6.418;2023-06-22T04:11:27;12.60;;;11.27;;
36291;SDS011;22327;51.208;6.418;2023-06-22T04:14:27;13.82;;;11.65;;
36291;SDS011;22327;51.208;6.418;2023-06-22T04:17:28;14.95;;;11.90;;
36291;SDS011;22327;51.208;6.418;2023-06-22T04:20:28;14.77;;;11.75;;
36291;SDS011;22327;51.208;6.418;2023-06-22T04:23:31;12.93;;;11.50;;
36291;SDS011;22327;51.208;6.418;2023-06-22T04:26:31;15.15;;;11.60;;
36291;SDS011;22327;51.208;6.418;2023-06-22T04:29:37;13.90;;;11.18;;
36291;SDS011;22327;51.208;6.418;2023-06-22T04:32:38;13.00;;;11.60;;
36291;SDS011;22327;51.208;6.418;2023-06-22T04:35:39;13.55;;;12.18;;
36291;SDS011;22327;51.208;6.418;2023-06-22T04:38:43;13.98;;;12.00;;
36291;SDS011;22327;51.208;6.418;2023-06-22T04:41:44;15.38;;;11.68;;
36291;SDS011;22327;51.208;6.418;2023-06-22T04:44:45;15.27;;;12.75;;
36291;SDS011;22327;51.208;6.418;2023-06-22T04:47:45;13.05;;;11.73;;
36291;SDS011;22327;51.208;6.418;2023-06-22T04:50:46;13.77;;;11.82;;
36291;SDS011;22327;51.208;6.418;2023-06-22T04:53:46;13.30;;;11.43;;
36291;SDS011;22327;51.208;6.418;2023-06-22T04:56:47;15.20;;;11.88;;
36291;SDS011;22327;51.208;6.418;2023-06-22T04:59:48;14.82;;;12.55;;
36291;SDS011;22327;51.208;6.418;2023-06-22T05:02:48;14.15;;;12.43;;
36291;SDS011;22327;51.208;6.418;2023-06-22T05:05:49;18.58;;;12.75;;
36291;SDS011;22327;51.208;6.418;2023-06-22T05:08:54;15.85;;;13.50;;
36291;SDS011;22327;51.208;6.418;2023-06-22T05:11:58;14.70;;;12.48;;
36291;SDS011;22327;51.208;6.418;2023-06-22T05:15:02;15.60;;;12.82;;
36291;SDS011;22327;51.208;6.418;2023-06-22T05:18:02;17.15;;;13.68;;
36291;SDS011;22327;51.208;6.418;2023-06-22T05:21:05;14.35;;;12.25;;
36291;SDS011;22327;51.208;6.418;2023-06-22T05:24:05;16.20;;;12.82;;
36291;SDS011;22327;51.208;6.418;2023-06-22T05:27:06;16.45;;;12.57;;
36291;SDS011;22327;51.208;6.418;2023-06-22T05:30:10;15.05;;;12.48;;
36291;SDS011;22327;51.208;6.418;2023-06-22T05:33:11;15.07;;;12.63;;
36291;SDS011;22327;51.208;6.418;2023-06-22T05:36:12;13.93;;;11.95;;
36291;SDS011;22327;51.208;6.418;2023-06-22T05:39:13;20.52;;;13.00;;
36291;SDS011;22327;51.208;6.418;2023-06-22T05:42:14;14.43;;;12.27;;
36291;SDS011;22327;51.208;6.418;2023-06-22T05:45:15;17.25;;;13.15;;
36291;SDS011;22327;51.208;6.418;2023-06-22T05:48:15;14.45;;;12.95;;
36291;SDS011;22327;51.208;6.418;2023-06-22T05:51:16;17.00;;;13.18;;
36291;SDS011;22327;51.208;6.418;2023-06-22T05:54:16;19.73;;;13.15;;
36291;SDS011;22327;51.208;6.418;2023-06-22T05:57:17;18.33;;;13.45;;
36291;SDS011;22327;51.208;6.418;2023-06-22T06:00:18;14.73;;;12.68;;
36291;SDS011;22327;51.208;6.418;2023-06-22T06:03:19;14.95;;;12.30;;
36291;SDS011;22327;51.208;6.418;2023-06-22T06:06:19;13.32;;;11.93;;
36291;SDS011;22327;51.208;6.418;2023-06-22T06:09:21;15.60;;;13.38;;
36291;SDS011;22327;51.208;6.418;2023-06-22T06:12:21;13.48;;;11.82;;
36291;SDS011;22327;51.208;6.418;2023-06-22T06:15:22;14.05;;;12.55;;
36291;SDS011;22327;51.208;6.418;2023-06-22T06:18:23;14.73;;;12.63;;
36291;SDS011;22327;51.208;6.418;2023-06-22T06:21:23;16.30;;;12.52;;
36291;SDS011;22327;51.208;6.418;2023-06-22T06:24:24;15.25;;;12.00;;
36291;SDS011;22327;51.208;6.418;2023-06-22T06:27:24;14.50;;;12.45;;
36291;SDS011;22327;51.208;6.418;2023-06-22T06:30:29;15.82;;;12.35;;
36291;SDS011;22327;51.208;6.418;2023-06-22T06:33:29;17.17;;;13.18;;
36291;SDS011;22327;51.208;6.418;2023-06-22T06:36:31;15.65;;;12.10;;
36291;SDS011;22327;51.208;6.418;2023-06-22T06:39:31;14.25;;;11.75;;
36291;SDS011;22327;51.208;6.418;2023-06-22T06:42:32;15.32;;;12.27;;
36291;SDS011;22327;51.208;6.418;2023-06-22T06:45:32;14.25;;;12.75;;
36291;SDS011;22327;51.208;6.418;2023-06-22T06:48:34;13.77;;;12.35;;
36291;SDS011;22327;51.208;6.418;2023-06-22T06:51:35;24.73;;;12.07;;
36291;SDS011;22327;51.208;6.418;2023-06-22T06:54:39;14.85;;;12.55;;
36291;SDS011;22327;51.208;6.418;2023-06-22T06:57:42;15.25;;;12.98;;
36291;SDS011;22327;51.208;6.418;2023-06-22T07:00:43;15.55;;;12.90;;
36291;SDS011;22327;51.208;6.418;2023-06-22T07:03:43;15.57;;;12.63;;
36291;SDS011;22327;51.208;6.418;2023-06-22T07:06:44;13.93;;;12.52;;
36291;SDS011;22327;51.208;6.418;2023-06-22T07:09:44;15.90;;;12.25;;
36291;SDS011;22327;51.208;6.418;2023-06-22T07:12:45;14.90;;;13.20;;
36291;SDS011;22327;51.208;6.418;2023-06-22T07:15:45;20.13;;;14.52;;
36291;SDS011;22327;51.208;6.418;2023-06-22T07:18:46;19.70;;;14.38;;
36291;SDS011;22327;51.208;6.418;2023-06-22T07:21:46;21.77;;;16.20;;
36291;SDS011;22327;51.208;6.418;2023-06-22T07:24:47;20.35;;;16.75;;
36291;SDS011;22327;51.208;6.418;2023-06-22T07:28:02;20.95;;;16.20;;
36291;SDS011;22327;51.208;6.418;2023-06-22T07:31:03;21.35;;;17.45;;
36291;SDS011;22327;51.208;6.418;2023-06-22T07:34:04;26.23;;;18.75;;
36291;SDS011;22327;51.208;6.418;2023-06-22T07:37:05;23.60;;;18.98;;
36291;SDS011;22327;51.208;6.418;2023-06-22T07:40:05;23.17;;;18.83;;
36291;SDS011;22327;51.208;6.418;2023-06-22T07:43:06;26.85;;;19.17;;
36291;SDS011;22327;51.208;6.418;2023-06-22T07:46:07;26.30;;;19.80;;
36291;SDS011;22327;51.208;6.418;2023-06-22T07:49:08;23.08;;;17.30;;
36291;SDS011;22327;51.208;6.418;2023-06-22T07:52:08;18.00;;;14.52;;
36291;SDS011;22327;51.208;6.418;2023-06-22T07:55:09;14.57;;;12.32;;
36291;SDS011;22327;51.208;6.418;2023-06-22T07:58:09;16.73;;;11.15;;
36291;SDS011;22327;51.208;6.418;2023-06-22T08:01:10;13.35;;;11.27;;
36291;SDS011;22327;51.208;6.418;2023-06-22T08:04:11;12.60;;;10.60;;
36291;SDS011;22327;51.208;6.418;2023-06-22T08:07:11;13.38;;;10.50;;
36291;SDS011;22327;51.208;6.418;2023-06-22T08:10:12;13.50;;;10.77;;
36291;SDS011;22327;51.208;6.418;2023-06-22T08:13:13;13.38;;;10.73;;
36291;SDS011;22327;51.208;6.418;2023-06-22T08:16:13;13.02;;;10.90;;
36291;SDS011;22327;51.208;6.418;2023-06-22T08:19:14;13.07;;;11.15;;
36291;SDS011;22327;51.208;6.418;2023-06-22T08:22:15;12.43;;;10.73;;
36291;SDS011;22327;51.208;6.418;2023-06-22T08:25:16;12.75;;;11.45;;
36291;SDS011;22327;51.208;6.418;2023-06-22T08:28:17;12.10;;;10.65;;
36291;SDS011;22327;51.208;6.418;2023-06-22T08:31:18;11.75;;;10.65;;
36291;SDS011;22327;51.208;6.418;2023-06-22T08:34:18;13.23;;;10.50;;
36291;SDS011;22327;51.208;6.418;2023-06-22T08:37:23;12.32;;;11.07;;
36291;SDS011;22327;51.208;6.418;2023-06-22T08:40:30;14.13;;;10.65;;
36291;SDS011;22327;51.208;6.418;2023-06-22T08:43:31;11.95;;;10.55;;
36291;SDS011;22327;51.208;6.418;2023-06-22T08:46:31;16.27;;;10.55;;
36291;SDS011;22327;51.208;6.418;2023-06-22T08:49:33;11.18;;;10.07;;
36291;SDS011;22327;51.208;6.418;2023-06-22T08:52:33;11.40;;;10.20;;
36291;SDS011;22327;51.208;6.418;2023-06-22T08:55:34;10.27;;;9.05;;
36291;SDS011;22327;51.208;6.418;2023-06-22T08:58:35;11.68;;;9.77;;
36291;SDS011;22327;51.208;6.418;2023-06-22T09:01:35;9.80;;;8.80;;
36291;SDS011;22327;51.208;6.418;2023-06-22T09:04:36;12.07;;;9.25;;
36291;SDS011;22327;51.208;6.418;2023-06-22T09:07:36;9.88;;;8.90;;
36291;SDS011;22327;51.208;6.418;2023-06-22T09:10:37;8.40;;;7.60;;
36291;SDS011;22327;51.208;6.418;2023-06-22T09:13:38;12.30;;;8.80;;
36291;SDS011;22327;51.208;6.418;2023-06-22T09:16:38;9.55;;;8.55;;
36291;SDS011;22327;51.208;6.418;2023-06-22T09:19:39;9.10;;;8.20;;
36291;SDS011;22327;51.208;6.418;2023-06-22T09:22:39;10.13;;;9.15;;
36291;SDS011;22327;51.208;6.418;2023-06-22T09:25:40;10.68;;;9.32;;
36291;SDS011;22327;51.208;6.418;2023-06-22T09:28:41;9.95;;;9.05;;
36291;SDS011;22327;51.208;6.418;2023-06-22T09:31:41;9.98;;;8.98;;
36291;SDS011;22327;51.208;6.418;2023-06-22T09:34:42;9.32;;;8.43;;
36291;SDS011;22327;51.208;6.418;2023-06-22T09:37:43;9.52;;;8.57;;
36291;SDS011;22327;51.208;6.418;2023-06-22T09:40:43;8.38;;;7.53;;
36291;SDS011;22327;51.208;6.418;2023-06-22T09:43:44;10.90;;;7.78;;
36291;SDS011;22327;51.208;6.418;2023-06-22T09:46:44;7.72;;;7.03;;
36291;SDS011;22327;51.208;6.418;2023-06-22T09:49:45;7.80;;;6.88;;
36291;SDS011;22327;51.208;6.418;2023-06-22T09:52:45;7.25;;;6.55;;
36291;SDS011;22327;51.208;6.418;2023-06-22T09:55:50;7.30;;;6.15;;
36291;SDS011;22327;51.208;6.418;2023-06-22T09:58:51;8.38;;;6.18;;
36291;SDS011;22327;51.208;6.418;2023-06-22T10:01:52;7.40;;;6.70;;
36291;SDS011;22327;51.208;6.418;2023-06-22T10:04:53;6.63;;;6.03;;
36291;SDS011;22327;51.208;6.418;2023-06-22T10:07:53;6.55;;;5.68;;
36291;SDS011;22327;51.208;6.418;2023-06-22T10:10:54;6.55;;;5.88;;
36291;SDS011;22327;51.208;6.418;2023-06-22T10:13:55;6.05;;;5.53;;
36291;SDS011;22327;51.208;6.418;2023-06-22T10:16:55;7.45;;;5.68;;
36291;SDS011;22327;51.208;6.418;2023-06-22T10:19:56;6.22;;;5.63;;
36291;SDS011;22327;51.208;6.418;2023-06-22T10:22:56;6.32;;;5.72;;
36291;SDS011;22327;51.208;6.418;2023-06-22T10:25:57;6.72;;;6.13;;
36291;SDS011;22327;51.208;6.418;2023-06-22T10:28:58;7.97;;;5.50;;
36291;SDS011;22327;51.208;6.418;2023-06-22T10:31:59;7.10;;;5.80;;
36291;SDS011;22327;51.208;6.418;2023-06-22T10:35:00;6.78;;;6.18;;
36291;SDS011;22327;51.208;6.418;2023-06-22T10:38:00;10.02;;;6.82;;
36291;SDS011;22327;51.208;6.418;2023-06-22T10:41:01;6.97;;;6.28;;
36291;SDS011;22327;51.208;6.418;2023-06-22T10:44:02;9.75;;;8.70;;
36291;SDS011;22327;51.208;6.418;2023-06-22T10:47:03;11.38;;;9.57;;
36291;SDS011;22327;51.208;6.418;2023-06-22T10:50:03;8.48;;;7.57;;
36291;SDS011;22327;51.208;6.418;2023-06-22T10:53:05;10.80;;;7.82;;
36291;SDS011;22327;51.208;6.418;2023-06-22T10:56:05;10.95;;;8.02;;
36291;SDS011;22327;51.208;6.418;2023-06-22T10:59:05;16.33;;;11.32;;
36291;SDS011;22327;51.208;6.418;2023-06-22T11:02:06;20.27;;;13.35;;
36291;SDS011;22327;51.208;6.418;2023-06-22T11:05:07;9.38;;;7.10;;
36291;SDS011;22327;51.208;6.418;2023-06-22T11:08:08;15.48;;;12.63;;
36291;SDS011;22327;51.208;6.418;2023-06-22T11:11:08;21.40;;;15.88;;
36291;SDS011;22327;51.208;6.418;2023-06-22T11:14:09;26.15;;;18.15;;
36291;SDS011;22327;51.208;6.418;2023-06-22T11:17:09;28.85;;;19.42;;
36291;SDS011;22327;51.208;6.418;2023-06-22T11:20:10;23.42;;;19.95;;
36291;SDS011;22327;51.208;6.418;2023-06-22T11:23:11;27.75;;;22.15;;
36291;SDS011;22327;51.208;6.418;2023-06-22T11:26:12;30.58;;;24.02;;
36291;SDS011;22327;51.208;6.418;2023-06-22T11:29:12;29.05;;;24.85;;
36291;SDS011;22327;51.208;6.418;2023-06-22T11:32:13;35.42;;;25.20;;
36291;SDS011;22327;51.208;6.418;2023-06-22T11:35:14;30.98;;;26.33;;
36291;SDS011;22327;51.208;6.418;2023-06-22T11:38:14;35.72;;;28.23;;
36291;SDS011;22327;51.208;6.418;2023-06-22T11:41:15;36.67;;;29.40;;
36291;SDS011;22327;51.208;6.418;2023-06-22T11:44:15;37.25;;;30.17;;
36291;SDS011;22327;51.208;6.418;2023-06-22T11:47:16;36.63;;;28.85;;
36291;SDS011;22327;51.208;6.418;2023-06-22T11:50:16;38.63;;;30.90;;
36291;SDS011;22327;51.208;6.418;2023-06-22T11:53:17;40.58;;;31.05;;
36291;SDS011;22327;51.208;6.418;2023-06-22T11:56:18;34.65;;;28.27;;
36291;SDS011;22327;51.208;6.418;2023-06-22T11:59:18;32.72;;;28.35;;
36291;SDS011;22327;51.208;6.418;2023-06-22T12:02:18;30.17;;;26.95;;
36291;SDS011;22327;51.208;6.418;2023-06-22T12:05:19;29.63;;;26.23;;
36291;SDS011;22327;51.208;6.418;2023-06-22T12:08:24;27.85;;;23.90;;
36291;SDS011;22327;51.208;6.418;2023-06-22T12:11:25;29.10;;;24.25;;
36291;SDS011;22327;51.208;6.418;2023-06-22T12:14:25;27.20;;;24.20;;
36291;SDS011;22327;51.208;6.418;2023-06-22T12:17:26;27.40;;;23.85;;
36291;SDS011;22327;51.208;6.418;2023-06-22T12:20:26;27.73;;;24.05;;
36291;SDS011;22327;51.208;6.418;2023-06-22T12:23:27;25.23;;;22.52;;
36291;SDS011;22327;51.208;6.418;2023-06-22T12:26:27;23.98;;;21.38;;
36291;SDS011;22327;51.208;6.418;2023-06-22T12:29:28;22.35;;;19.77;;
36291;SDS011;22327;51.208;6.418;2023-06-22T12:32:28;22.98;;;20.42;;
36291;SDS011;22327;51.208;6.418;2023-06-22T12:35:30;20.88;;;18.02;;
36291;SDS011;22327;51.208;6.418;2023-06-22T12:38:30;22.65;;;17.63;;
36291;SDS011;22327;51.208;6.418;2023-06-22T12:41:31;21.23;;;18.98;;
36291;SDS011;22327;51.208;6.418;2023-06-22T12:44:31;22.55;;;18.88;;
36291;SDS011;22327;51.208;6.418;2023-06-22T12:47:32;23.35;;;20.23;;
36291;SDS011;22327;51.208;6.418;2023-06-22T12:50:32;23.92;;;19.20;;
36291;SDS011;22327;51.208;6.418;2023-06-22T12:53:33;24.40;;;21.48;;
36291;SDS011;22327;51.208;6.418;2023-06-22T12:56:34;28.48;;;23.48;;
36291;SDS011;22327;51.208;6.418;2023-06-22T12:59:34;28.70;;;22.58;;
36291;SDS011;22327;51.208;6.418;2023-06-22T13:02:35;25.90;;;22.70;;
36291;SDS011;22327;51.208;6.418;2023-06-22T13:05:36;26.10;;;23.27;;
36291;SDS011;22327;51.208;6.418;2023-06-22T13:08:36;27.33;;;22.65;;
36291;SDS011;22327;51.208;6.418;2023-06-22T13:11:37;27.88;;;24.38;;
36291;SDS011;22327;51.208;6.418;2023-06-22T13:14:37;24.73;;;22.13;;
36291;SDS011;22327;51.208;6.418;2023-06-22T13:17:38;26.17;;;23.33;;
36291;SDS011;22327;51.208;6.418;2023-06-22T13:20:38;26.38;;;23.55;;
36291;SDS011;22327;51.208;6.418;2023-06-22T13:23:39;25.25;;;22.55;;
36291;SDS011;22327;51.208;6.418;2023-06-22T13:26:39;24.00;;;21.40;;
36291;SDS011;22327;51.208;6.418;2023-06-22T13:29:40;24.20;;;21.70;;
36291;SDS011;22327;51.208;6.418;2023-06-22T13:32:40;25.35;;;22.60;;
36291;SDS011;22327;51.208;6.418;2023-06-22T13:35:41;24.08;;;21.58;;
36291;SDS011;22327;51.208;6.418;2023-06-22T13:38:42;25.33;;;22.35;;
36291;SDS011;22327;51.208;6.418;2023-06-22T13:41:43;25.70;;;23.00;;
36291;SDS011;22327;51.208;6.418;2023-06-22T13:44:43;25.88;;;23.13;;
36291;SDS011;22327;51.208;6.418;2023-06-22T13:47:44;25.30;;;22.63;;
36291;SDS011;22327;51.208;6.418;2023-06-22T13:50:45;26.23;;;23.52;;
36291;SDS011;22327;51.208;6.418;2023-06-22T13:53:45;23.98;;;21.48;;
36291;SDS011;22327;51.208;6.418;2023-06-22T13:56:46;25.88;;;23.23;;
36291;SDS011;22327;51.208;6.418;2023-06-22T13:59:46;28.98;;;24.75;;
36291;SDS011;22327;51.208;6.418;2023-06-22T14:02:47;26.13;;;23.33;;
36291;SDS011;22327;51.208;6.418;2023-06-22T14:05:47;25.08;;;22.58;;
36291;SDS011;22327;51.208;6.418;2023-06-22T14:08:48;25.88;;;23.30;;
36291;SDS011;22327;51.208;6.418;2023-06-22T14:11:49;26.75;;;24.02;;
36291;SDS011;22327;51.208;6.418;2023-06-22T14:14:49;26.55;;;23.75;;
36291;SDS011;22327;51.208;6.418;2023-06-22T14:17:50;24.67;;;22.13;;
36291;SDS011;22327;51.208;6.418;2023-06-22T14:20:51;26.58;;;23.67;;
36291;SDS011;22327;51.208;6.418;2023-06-22T14:23:51;26.60;;;23.70;;
36291;SDS011;22327;51.208;6.418;2023-06-22T14:26:52;26.40;;;23.60;;
36291;SDS011;22327;51.208;6.418;2023-06-22T14:29:53;27.55;;;24.63;;
36291;SDS011;22327;51.208;6.418;2023-06-22T14:32:54;26.10;;;23.38;;
36291;SDS011;22327;51.208;6.418;2023-06-22T14:35:54;27.83;;;24.98;;
36291;SDS011;22327;51.208;6.418;2023-06-22T14:38:55;26.33;;;23.65;;
36291;SDS011;22327;51.208;6.418;2023-06-22T14:41:55;27.55;;;24.75;;
36291;SDS011;22327;51.208;6.418;2023-06-22T14:44:56;31.50;;;25.38;;
36291;SDS011;22327;51.208;6.418;2023-06-22T14:47:56;26.17;;;21.85;;
36291;SDS011;22327;51.208;6.418;2023-06-22T14:50:57;28.83;;;25.70;;
36291;SDS011;22327;51.208;6.418;2023-06-22T14:53:57;28.05;;;25.17;;
36291;SDS011;22327;51.208;6.418;2023-06-22T14:56:58;26.70;;;23.55;;
36291;SDS011;22327;51.208;6.418;2023-06-22T14:59:58;27.35;;;24.52;;
36291;SDS011;22327;51.208;6.418;2023-06-22T15:03:01;27.33;;;24.27;;
36291;SDS011;22327;51.208;6.418;2023-06-22T15:06:02;28.95;;;24.38;;
36291;SDS011;22327;51.208;6.418;2023-06-22T15:09:03;26.83;;;22.70;;
36291;SDS011;22327;51.208;6.418;2023-06-22T15:12:04;27.10;;;24.35;;
36291;SDS011;22327;51.208;6.418;2023-06-22T15:15:07;28.17;;;24.45;;
36291;SDS011;22327;51.208;6.418;2023-06-22T15:18:08;26.75;;;23.48;;
36291;SDS011;22327;51.208;6.418;2023-06-22T15:21:09;27.63;;;24.17;;
36291;SDS011;22327;51.208;6.418;2023-06-22T15:24:09;28.10;;;25.08;;
36291;SDS011;22327;51.208;6.418;2023-06-22T15:27:11;26.17;;;23.45;;
36291;SDS011;22327;51.208;6.418;2023-06-22T15:30:11;27.75;;;24.85;;
36291;SDS011;22327;51.208;6.418;2023-06-22T15:33:12;36.08;;;29.65;;
36291;SDS011;22327;51.208;6.418;2023-06-22T15:36:12;36.60;;;29.95;;
36291;SDS011;22327;51.208;6.418;2023-06-22T15:39:13;44.78;;;32.63;;
36291;SDS011;22327;51.208;6.418;2023-06-22T15:42:13;47.25;;;34.60;;
36291;SDS011;22327;51.208;6.418;2023-06-22T15:45:14;48.08;;;34.10;;
36291;SDS011;22327;51.208;6.418;2023-06-22T15:48:14;43.40;;;30.48;;
36291;SDS011;22327;51.208;6.418;2023-06-22T15:51:15;48.80;;;34.63;;
36291;SDS011;22327;51.208;6.418;2023-06-22T15:54:15;51.25;;;34.15;;
36291;SDS011;22327;51.208;6.418;2023-06-22T15:57:16;58.20;;;36.58;;
36291;SDS011;22327;51.208;6.418;2023-06-22T16:00:17;49.25;;;31.83;;
36291;SDS011;22327;51.208;6.418;2023-06-22T16:03:18;60.17;;;37.40;;
36291;SDS011;22327;51.208;6.418;2023-06-22T16:06:18;69.95;;;36.95;;
36291;SDS011;22327;51.208;6.418;2023-06-22T16:09:20;64.95;;;37.30;;
36291;SDS011;22327;51.208;6.418;2023-06-22T16:12:20;65.32;;;36.20;;
36291;SDS011;22327;51.208;6.418;2023-06-22T16:15:21;64.75;;;36.85;;
36291;SDS011;22327;51.208;6.418;2023-06-22T16:18:21;62.05;;;35.13;;
36291;SDS011;22327;51.208;6.418;2023-06-22T16:21:22;60.85;;;35.45;;
36291;SDS011;22327;51.208;6.418;2023-06-22T16:24:22;78.00;;;39.80;;
36291;SDS011;22327;51.208;6.418;2023-06-22T16:27:23;77.35;;;41.58;;
36291;SDS011;22327;51.208;6.418;2023-06-22T16:30:24;74.03;;;38.17;;
36291;SDS011;22327;51.208;6.418;2023-06-22T16:33:24;71.45;;;40.38;;
36291;SDS011;22327;51.208;6.418;2023-06-22T16:36:25;77.65;;;42.80;;
36291;SDS011;22327;51.208;6.418;2023-06-22T16:39:26;74.22;;;39.78;;
36291;SDS011;22327;51.208;6.418;2023-06-22T16:42:26;65.00;;;37.83;;
36291;SDS011;22327;51.208;6.418;2023-06-22T16:45:27;68.25;;;40.85;;
36291;SDS011;22327;51.208;6.418;2023-06-22T16:48:27;76.63;;;42.38;;
36291;SDS011;22327;51.208;6.418;2023-06-22T16:51:30;76.43;;;42.83;;
36291;SDS011;22327;51.208;6.418;2023-06-22T16:54:31;70.35;;;39.83;;
36291;SDS011;22327;51.208;6.418;2023-06-22T16:57:32;72.70;;;41.95;;
36291;SDS011;22327;51.208;6.418;2023-06-22T17:00:34;80.93;;;44.28;;
36291;SDS011;22327;51.208;6.418;2023-06-22T17:03:39;71.85;;;41.28;;
36291;SDS011;22327;51.208;6.418;2023-06-22T17:06:46;72.07;;;38.70;;
36291;SDS011;22327;51.208;6.418;2023-06-22T17:09:52;80.28;;;42.67;;
36291;SDS011;22327;51.208;6.418;2023-06-22T17:12:55;71.88;;;41.15;;
36291;SDS011;22327;51.208;6.418;2023-06-22T17:19:01;61.78;;;39.58;;
36291;SDS011;22327;51.208;6.418;2023-06-22T17:22:05;55.35;;;33.83;;
36291;SDS011;22327;51.208;6.418;2023-06-22T17:25:06;73.55;;;45.95;;
36291;SDS011;22327;51.208;6.418;2023-06-22T17:28:08;55.92;;;36.17;;
36291;SDS011;22327;51.208;6.418;2023-06-22T17:31:09;62.35;;;40.58;;
36291;SDS011;22327;51.208;6.418;2023-06-22T17:34:11;63.28;;;38.60;;
36291;SDS011;22327;51.208;6.418;2023-06-22T17:37:16;58.30;;;38.42;;
36291;SDS011;22327;51.208;6.418;2023-06-22T17:40:17;62.78;;;39.53;;
36291;SDS011;22327;51.208;6.418;2023-06-22T17:43:19;63.72;;;38.83;;
36291;SDS011;22327;51.208;6.418;2023-06-22T17:46:20;49.72;;;32.30;;
36291;SDS011;22327;51.208;6.418;2023-06-22T17:49:25;56.92;;;35.70;;
36291;SDS011;22327;51.208;6.418;2023-06-22T17:52:27;54.30;;;34.65;;
36291;SDS011;22327;51.208;6.418;2023-06-22T17:55:30;33.53;;;21.45;;